createdAt,value
2023-08-17T00:01:20.512Z,102330.69
2023-08-17T00:06:22.246Z,102321.91
2023-08-17T00:11:24.537Z,102316.50
2023-08-17T00:16:26.888Z,102309.19
2023-08-17T00:21:29.394Z,102320.44
2023-08-17T00:26:33.588Z,102316.03
2023-08-17T00:31:37.481Z,102323.31
2023-08-17T00:36:39.399Z,102323.31
2023-08-17T00:41:41.682Z,102312.69
2023-08-17T00:46:43.537Z,102312.06
2023-08-17T00:51:48.259Z,102322.03
2023-08-17T00:56:49.984Z,102323.09
2023-08-17T01:01:54.236Z,102330.56
2023-08-17T01:06:56.007Z,102328.88
2023-08-17T01:12:09.769Z,102327.84
2023-08-17T01:17:22.690Z,102323.44
2023-08-17T01:22:25.742Z,102318.03
2023-08-17T01:27:30.969Z,102328.22
2023-08-17T01:32:39.916Z,102314.69
2023-08-17T01:37:43.336Z,102316.38
2023-08-17T01:42:45.117Z,102319.28
2023-08-17T01:47:46.850Z,102309.28
2023-08-17T01:52:52.239Z,102307.63
2023-08-17T01:57:54.091Z,102298.66
2023-08-17T02:02:57.898Z,102303.50
2023-08-17T02:08:01.682Z,102297.25
2023-08-17T02:13:17.228Z,102289.31
2023-08-17T02:18:19.934Z,102301.38
2023-08-17T02:23:24.221Z,102307.16
2023-08-17T02:28:30.216Z,102313.72
2023-08-17T02:33:34.814Z,102306.19
2023-08-17T02:38:38.677Z,102304.53
2023-08-17T02:43:43.018Z,102297.44
2023-08-17T02:48:44.742Z,102300.78
2023-08-17T02:53:46.475Z,102299.50
2023-08-17T02:58:48.432Z,102296.78
2023-08-17T03:03:52.155Z,102303.44
2023-08-17T03:08:54.691Z,102307.72
2023-08-17T03:14:01.187Z,102298.59
2023-08-17T03:19:05.505Z,102294.59
2023-08-17T03:24:08.443Z,102284.19
2023-08-17T03:29:11.109Z,102281.41
2023-08-17T03:34:13.669Z,102291.34
2023-08-17T03:39:18.278Z,102282.16
2023-08-17T03:44:22.232Z,102280.69
2023-08-17T03:49:26.344Z,102292.91
2023-08-17T03:54:28.118Z,102284.97
2023-08-17T03:59:33.424Z,102291.97
2023-08-17T04:04:38.076Z,102284.72
2023-08-17T04:09:46.126Z,102289.47
2023-08-17T04:14:48.122Z,102302.78
2023-08-17T04:19:50.053Z,102296.72
2023-08-17T04:24:54.080Z,102292.72
2023-08-17T04:29:58.212Z,102287.69
2023-08-17T04:35:03.257Z,102297.00
2023-08-17T04:40:06.399Z,102294.88
2023-08-17T04:45:10.948Z,102293.41
2023-08-17T04:50:17.587Z,102296.28
2023-08-17T04:55:19.943Z,102294.41
2023-08-17T05:00:29.247Z,102290.22
2023-08-17T05:05:31.755Z,102285.47
2023-08-17T05:10:35.263Z,102295.72
2023-08-17T05:15:39.292Z,102293.66
2023-08-17T05:20:43.851Z,102301.94
2023-08-17T05:25:49.174Z,102304.00
2023-08-17T05:30:54.972Z,102296.94
2023-08-17T05:35:57.181Z,102307.94
2023-08-17T05:40:59.944Z,102309.16
2023-08-17T05:46:04.217Z,102317.25
2023-08-17T05:51:06.027Z,102317.25
2023-08-17T05:56:07.746Z,102311.66
2023-08-17T06:01:11.097Z,102319.59
2023-08-17T06:06:13.017Z,102313.53
2023-08-17T06:11:17.006Z,102317.06
2023-08-17T06:16:21.862Z,102328.34
2023-08-17T06:21:23.698Z,102329.63
2023-08-17T06:26:26.306Z,102338.78
2023-08-17T06:31:28.762Z,102325.75
2023-08-17T06:36:36.379Z,102320.34
2023-08-17T06:41:40.710Z,102332.72
2023-08-17T06:46:44.879Z,102328.34
2023-08-17T06:51:48.978Z,102329.94
2023-08-17T06:56:50.789Z,102341.59
2023-08-17T07:01:52.563Z,102337.66
2023-08-17T07:06:56.331Z,102334.13
2023-08-17T07:12:00.553Z,102342.25
2023-08-17T07:17:02.314Z,102342.41
2023-08-17T07:22:04.218Z,102343.81
2023-08-17T07:27:05.976Z,102350.72
2023-08-17T07:32:10.212Z,102333.66
2023-08-17T07:37:14.298Z,102333.94
2023-08-17T07:42:23.241Z,102337.38
2023-08-17T07:47:27.130Z,102335.13
2023-08-17T07:52:33.998Z,102339.69
2023-08-17T07:57:35.737Z,102350.16
2023-08-17T08:02:42.311Z,102348.47
2023-08-17T08:07:46.301Z,102349.81
2023-08-17T08:12:48.025Z,102356.69
2023-08-17T08:17:52.336Z,102352.75
2023-08-17T08:22:54.180Z,102348.22
2023-08-17T08:27:59.192Z,102353.81
2023-08-17T08:33:03.553Z,102351.94
2023-08-17T08:38:07.981Z,102351.84
2023-08-17T08:43:12.002Z,102347.31
2023-08-17T08:48:15.212Z,102342.31
2023-08-17T08:53:18.992Z,102336.91
2023-08-17T08:58:23.172Z,102325.59
2023-08-17T09:03:28.150Z,102329.25
2023-08-17T09:08:34.696Z,102315.16
2023-08-17T09:13:36.583Z,102320.09
2023-08-17T09:18:40.559Z,102317.47
2023-08-17T09:23:44.928Z,102319.19
2023-08-17T09:28:51.391Z,102317.25
2023-08-17T09:33:53.218Z,102320.09
2023-08-17T09:39:02.599Z,102320.13
2023-08-17T09:44:04.956Z,102314.75
2023-08-17T09:49:07.158Z,102301.66
2023-08-17T09:54:09.349Z,102302.34
2023-08-17T09:59:11.208Z,102304.03
2023-08-17T10:04:13.930Z,102301.16
2023-08-17T10:09:23.356Z,102295.91
2023-08-17T10:14:31.633Z,102294.31
2023-08-17T10:19:55.737Z,102295.22
2023-08-17T10:25:02.346Z,102286.09
2023-08-17T10:30:09.573Z,102286.59
2023-08-17T10:35:14.551Z,102285.84
2023-08-17T10:40:27.878Z,102280.84
2023-08-17T10:45:38.817Z,102290.91
2023-08-17T10:50:43.734Z,102302.81
2023-08-17T11:00:57.976Z,102292.34
2023-08-17T11:06:15.900Z,102285.03
2023-08-17T11:11:24.265Z,102293.78
2023-08-17T11:16:29.603Z,102300.22
2023-08-17T11:21:31.428Z,102303.53
2023-08-17T11:26:36.281Z,102293.09
2023-08-17T11:31:43.090Z,102288.16
2023-08-17T11:36:44.967Z,102273.59
2023-08-17T11:41:46.667Z,102260.41
2023-08-17T11:46:51.223Z,102247.28
2023-08-17T11:51:53.097Z,102255.22
2023-08-17T11:56:55.035Z,102265.00
2023-08-17T12:01:56.784Z,102250.41
2023-08-17T12:06:58.496Z,102259.56
2023-08-17T12:12:01.414Z,102250.03
2023-08-17T12:17:05.416Z,102249.84
2023-08-17T12:22:09.797Z,102244.34
2023-08-17T12:27:11.831Z,102247.09
2023-08-17T12:32:15.292Z,102241.50
2023-08-17T12:37:23.730Z,102242.03
2023-08-17T12:42:25.454Z,102245.66
2023-08-17T12:47:27.267Z,102248.22
2023-08-17T12:52:29.686Z,102244.28
2023-08-17T12:57:31.502Z,102234.50
2023-08-17T13:02:33.333Z,102238.22
2023-08-17T13:07:37.385Z,102225.91
2023-08-17T13:12:39.192Z,102224.88
2023-08-17T13:17:44.190Z,102216.50
2023-08-17T13:22:48.210Z,102229.28
2023-08-17T13:27:52.539Z,102234.75
2023-08-17T13:32:57.325Z,102234.94
2023-08-17T13:38:05.458Z,102237.47
2023-08-17T13:43:13.293Z,102236.59
2023-08-17T13:48:15.548Z,102239.13
2023-08-17T13:53:20.037Z,102229.28
2023-08-17T13:58:21.929Z,102234.13
2023-08-17T14:03:24.352Z,102235.16
2023-08-17T14:08:26.150Z,102243.28
2023-08-17T14:13:32.724Z,102245.38
2023-08-17T14:18:39.624Z,102249.56
2023-08-17T14:23:46.758Z,102240.56
2023-08-17T14:28:51.140Z,102258.31
2023-08-17T14:33:55.359Z,102253.88
2023-08-17T14:38:59.547Z,102252.66
2023-08-17T14:44:03.400Z,102250.34
2023-08-17T14:49:08.411Z,102243.03
2023-08-17T14:54:13.000Z,102238.47
2023-08-17T14:59:14.870Z,102258.06
2023-08-17T15:04:18.718Z,102264.31
2023-08-17T15:09:20.636Z,102263.19
2023-08-17T15:14:22.928Z,102256.72
2023-08-17T15:24:48.581Z,102240.91
2023-08-17T15:29:50.567Z,102231.47
2023-08-17T15:34:56.865Z,102234.81
2023-08-17T15:40:02.018Z,102225.41
2023-08-17T15:45:07.232Z,102229.59
2023-08-17T15:50:09.269Z,102228.53
2023-08-17T15:55:10.989Z,102231.44
2023-08-17T16:00:13.681Z,102229.97
2023-08-17T16:05:20.714Z,102233.94
2023-08-17T16:10:22.564Z,102228.06
2023-08-17T16:15:29.145Z,102227.88
2023-08-17T16:20:34.540Z,102227.41
2023-08-17T16:25:39.593Z,102218.25
2023-08-17T16:30:44.348Z,102214.91
2023-08-17T16:35:48.529Z,102217.03
2023-08-17T16:40:53.611Z,102216.44
2023-08-17T16:45:55.458Z,102212.91
2023-08-17T16:50:58.029Z,102216.50
2023-08-17T16:55:59.877Z,102212.34
2023-08-17T17:01:01.762Z,102202.50
2023-08-17T17:06:03.754Z,102205.22
2023-08-17T17:11:09.414Z,102192.06
2023-08-17T17:16:11.208Z,102195.00
2023-08-17T17:21:13.009Z,102186.44
2023-08-17T17:26:14.793Z,102194.16
2023-08-17T17:31:18.896Z,102184.75
2023-08-17T17:36:20.732Z,102178.28
2023-08-17T17:41:22.559Z,102178.56
2023-08-17T17:46:29.111Z,102187.88
2023-08-17T17:51:31.405Z,102182.03
2023-08-17T17:56:39.721Z,102179.53
2023-08-17T18:01:41.638Z,102172.41
2023-08-17T18:06:47.960Z,102174.66
2023-08-17T18:11:49.860Z,102181.53
2023-08-17T18:16:51.774Z,102186.47
2023-08-17T18:21:55.879Z,102188.31
2023-08-17T18:27:02.351Z,102187.69
2023-08-17T18:32:06.704Z,102194.13
2023-08-17T18:37:13.458Z,102194.91
2023-08-17T18:42:17.472Z,102187.97
2023-08-17T18:47:22.395Z,102190.63
2023-08-17T18:52:28.175Z,102194.13
2023-08-17T18:57:35.531Z,102198.06
2023-08-17T19:02:44.199Z,102208.66
2023-08-17T19:07:50.948Z,102218.63
2023-08-17T19:12:55.311Z,102221.75
2023-08-17T19:17:57.223Z,102220.22
2023-08-17T19:22:59.350Z,102213.34
2023-08-17T19:28:01.142Z,102210.38
2023-08-17T19:33:03.151Z,102218.88
2023-08-17T19:38:10.539Z,102216.38
2023-08-17T19:43:15.563Z,102219.84
2023-08-17T19:48:17.420Z,102208.38
2023-08-17T19:53:19.104Z,102209.63
2023-08-17T19:58:23.141Z,102202.53
2023-08-17T20:03:27.013Z,102191.72
2023-08-17T20:08:31.061Z,102187.69
2023-08-17T20:13:32.887Z,102188.28
2023-08-17T20:18:34.693Z,102193.25
2023-08-17T20:23:41.331Z,102194.47
2023-08-17T20:28:43.821Z,102184.66
2023-08-17T20:33:46.227Z,102191.13
2023-08-17T20:38:50.258Z,102189.25
2023-08-17T20:43:53.943Z,102194.25
2023-08-17T20:49:00.791Z,102184.63
2023-08-17T20:54:07.363Z,102186.50
2023-08-17T20:59:09.141Z,102181.28
2023-08-17T21:04:13.071Z,102190.91
2023-08-17T21:09:17.420Z,102191.91
2023-08-17T21:14:23.950Z,102183.78
2023-08-17T21:19:27.735Z,102193.78
2023-08-17T21:24:29.437Z,102191.25
2023-08-17T21:29:31.183Z,102193.13
2023-08-17T21:34:32.922Z,102183.16
2023-08-17T21:39:34.690Z,102182.50
2023-08-17T21:44:38.859Z,102174.19
2023-08-17T21:49:43.945Z,102168.97
2023-08-17T21:54:51.444Z,102163.56
2023-08-17T21:59:53.232Z,102154.63
2023-08-17T22:04:55.022Z,102158.38
2023-08-17T22:09:56.758Z,102158.16
2023-08-17T22:14:58.711Z,102146.31
2023-08-17T22:20:00.483Z,102157.13
2023-08-17T22:25:07.045Z,102150.03
2023-08-17T22:30:09.078Z,102153.56
2023-08-17T22:35:11.501Z,102145.47
2023-08-17T22:40:13.528Z,102140.03
2023-08-17T22:45:15.331Z,102142.56
2023-08-17T22:50:17.188Z,102137.34
2023-08-17T22:55:21.178Z,102146.09
2023-08-17T23:00:23.072Z,102145.28
2023-08-17T23:05:24.923Z,102145.47
2023-08-17T23:10:27.693Z,102144.44
2023-08-17T23:15:29.940Z,102142.75
2023-08-17T23:20:34.003Z,102146.09
2023-08-17T23:25:36.145Z,102137.34
2023-08-17T23:30:43.437Z,102127.56
2023-08-17T23:35:47.768Z,102133.81
2023-08-17T23:40:51.871Z,102133.81
2023-08-17T23:45:53.589Z,102135.69
2023-08-17T23:50:55.338Z,102130.28
2023-08-17T23:55:57.491Z,102138.38
